Time;durP1;ratioP1;P1;durP2;ratioP2;P2;SDS_P1;SDS_P2;PMS_P1;PMS_P2;Temp;Humidity;BMP_temperature;BMP_pressure;BME280_temperature;BME280_humidity;BME280_pressure;Samples;Min_cycle;Max_cycle;Signal;HPM_P1;HPM_P2
2020/12/20 00:00:49;;;;;;;24.58;16.45;;;;;;;10.30;78.85;99065.47;4979628;28;20233;-85
2020/12/20 00:03:17;;;;;;;17.95;14.02;;;;;;;10.28;78.54;99072.75;4999575;28;20216;-86
2020/12/20 00:05:43;;;;;;;30.85;21.73;;;;;;;10.28;79.02;99066.53;4987188;28;20195;-87
2020/12/20 00:08:12;;;;;;;35.15;24.50;;;;;;;10.26;78.88;99076.50;5022087;28;20226;-86
2020/12/20 00:10:40;;;;;;;32.55;21.98;;;;;;;10.22;79.23;99077.69;4997951;28;20225;-85
2020/12/20 00:13:06;;;;;;;30.92;21.65;;;;;;;10.26;79.35;99073.81;4978395;28;20233;-84
2020/12/20 00:15:34;;;;;;;13.23;10.52;;;;;;;10.32;79.50;99078.78;4975662;28;20244;-85
2020/12/20 00:18:00;;;;;;;14.15;9.55;;;;;;;10.42;79.91;99072.72;5026104;28;20692;-88
2020/12/20 00:20:27;;;;;;;9.85;8.10;;;;;;;10.45;79.97;99063.59;5009630;28;20250;-88
2020/12/20 00:22:54;;;;;;;18.60;14.50;;;;;;;10.64;78.86;99070.34;5025005;28;20230;-89
2020/12/20 00:29:04;;;;;;;24.25;16.80;;;;;;;10.46;78.93;99059.97;5017441;28;20232;-91
2020/12/20 00:31:32;;;;;;;22.08;17.02;;;;;;;10.33;79.66;99059.00;5030130;28;20245;-89
2020/12/20 00:34:14;;;;;;;21.52;17.02;;;;;;;10.29;80.05;99060.19;4996131;28;20239;-90
2020/12/20 00:37:43;;;;;;;20.85;15.85;;;;;;;10.45;78.59;99058.22;4966581;28;20233;-89
2020/12/20 00:40:10;;;;;;;20.40;15.13;;;;;;;10.57;77.80;99052.03;5002091;28;20225;-89
2020/12/20 00:42:36;;;;;;;23.08;15.82;;;;;;;10.40;78.92;99057.69;4995922;28;20233;-89
2020/12/20 00:45:11;;;;;;;25.13;18.67;;;;;;;10.41;79.00;99056.72;4968533;28;20297;-88
2020/12/20 00:47:54;;;;;;;26.15;18.58;;;;;;;10.39;79.25;99047.84;4908078;28;20237;-88
2020/12/20 00:50:22;;;;;;;22.75;16.95;;;;;;;10.34;79.68;99052.72;4997489;28;20229;-89
2020/12/20 00:52:54;;;;;;;24.05;18.30;;;;;;;10.19;79.89;99043.81;4983667;28;20285;-89
2020/12/20 00:55:21;;;;;;;25.60;18.70;;;;;;;10.14;79.94;99042.41;4946646;28;20222;-89
2020/12/20 00:57:57;;;;;;;33.08;22.65;;;;;;;10.14;80.13;99042.41;4975626;28;20218;-88
2020/12/20 01:00:29;;;;;;;31.60;22.70;;;;;;;10.13;80.32;99048.72;5011613;28;20204;-88
2020/12/20 01:03:00;;;;;;;26.08;18.58;;;;;;;10.10;80.31;99044.41;4984685;28;20213;-88
2020/12/20 01:05:31;;;;;;;26.48;17.27;;;;;;;10.14;80.38;99047.78;4982679;28;20234;-87
2020/12/20 01:08:02;;;;;;;21.67;13.93;;;;;;;10.21;79.93;99043.72;4991191;28;20242;-88
2020/12/20 01:10:34;;;;;;;17.10;12.80;;;;;;;10.15;80.09;99039.59;4957790;28;20232;-87
2020/12/20 01:13:01;;;;;;;21.00;13.95;;;;;;;10.23;80.01;99052.53;5006518;28;20321;-87
2020/12/20 01:15:33;;;;;;;20.80;14.50;;;;;;;10.17;80.32;99047.56;5011123;28;20313;-87
2020/12/20 01:18:03;;;;;;;13.63;11.05;;;;;;;10.24;80.15;99054.25;4986261;28;20194;-87
2020/12/20 01:20:30;;;;;;;15.82;11.60;;;;;;;10.14;80.44;99047.78;4992706;28;20232;-87
2020/12/20 01:22:56;;;;;;;21.23;15.75;;;;;;;10.14;80.48;99053.16;4993627;28;20273;-87
2020/12/20 01:25:23;;;;;;;26.58;16.75;;;;;;;10.08;80.58;99042.81;4999165;28;20279;-87
2020/12/20 01:28:10;;;;;;;27.02;17.73;;;;;;;10.05;80.82;99042.97;5014613;28;20273;-88
2020/12/20 01:30:40;;;;;;;22.23;16.30;;;;;;;10.00;81.71;99043.25;5021690;28;20225;-88
2020/12/20 01:33:06;;;;;;;22.88;15.60;;;;;;;10.00;81.71;99037.00;4996456;28;20693;-87
2020/12/20 01:35:41;;;;;;;19.15;13.52;;;;;;;10.02;81.69;99043.16;4984421;28;20225;-88
2020/12/20 01:38:09;;;;;;;15.20;10.13;;;;;;;9.97;81.96;99042.59;4983265;28;20228;-87
2020/12/20 01:40:36;;;;;;;11.45;8.45;;;;;;;9.99;82.13;99044.22;4996329;28;20218;-87
2020/12/20 01:43:03;;;;;;;10.55;8.18;;;;;;;10.04;82.02;99052.00;4997244;28;20615;-87
2020/12/20 01:46:38;;;;;;;13.30;8.07;;;;;;;10.07;82.15;99046.41;4980200;28;20226;-88
2020/12/20 01:48:56;;;;;;;9.52;7.43;;;;;;;10.12;82.03;99052.38;5019793;28;20211;-90
2020/12/20 01:51:34;;;;;;;10.38;7.10;;;;;;;10.13;81.82;99054.09;5016210;28;20249;-88
2020/12/20 01:54:33;;;;;;;10.43;8.07;;;;;;;10.16;81.84;99059.28;4988023;28;20214;-88
2020/12/20 01:57:12;;;;;;;9.13;7.60;;;;;;;10.22;82.04;99054.34;5033821;28;20232;-88
2020/12/20 02:00:12;;;;;;;10.43;7.45;;;;;;;10.36;81.84;99054.34;4937643;29;20211;-88
2020/12/20 02:03:26;;;;;;;9.05;7.50;;;;;;;10.27;82.51;99048.69;4868413;29;20237;-88
2020/12/20 02:05:55;;;;;;;11.02;7.85;;;;;;;10.29;83.12;99046.75;4953292;28;20207;-88
2020/12/20 02:08:22;;;;;;;10.43;8.77;;;;;;;10.28;83.91;99055.78;4990344;28;20282;-89
2020/12/20 02:11:07;;;;;;;11.57;9.13;;;;;;;10.70;81.43;99056.50;5043985;28;20238;-89
2020/12/20 02:13:43;;;;;;;9.50;8.30;;;;;;;10.78;80.71;99058.66;5007597;28;20210;-90
2020/12/20 02:16:14;;;;;;;11.70;8.75;;;;;;;10.45;83.04;99055.53;5014048;28;20233;-89
2020/12/20 02:18:45;;;;;;;11.98;8.27;;;;;;;10.34;84.57;99058.09;5000551;28;20207;-89
2020/12/20 02:24:21;;;;;;;13.60;9.52;;;;;;;10.57;82.75;99065.47;4969203;26;20224;-90
2020/12/20 02:26:57;;;;;;;12.15;9.43;;;;;;;10.36;85.07;99059.72;4971821;28;20223;-90
2020/12/20 02:29:28;;;;;;;11.10;8.85;;;;;;;10.34;85.70;99063.44;4948443;28;20219;-90
2020/12/20 02:35:26;;;;;;;13.10;9.52;;;;;;;10.04;88.47;99057.38;4899510;28;20281;-86
2020/12/20 02:38:01;;;;;;;11.65;9.20;;;;;;;10.00;89.60;99062.06;4899501;29;20186;-87
2020/12/20 02:40:34;;;;;;;11.18;9.25;;;;;;;9.99;90.65;99060.34;4891339;28;20220;-88
2020/12/20 02:43:42;;;;;;;11.73;9.48;;;;;;;10.03;89.96;99051.13;4818525;29;20312;-90
2020/12/20 02:46:27;;;;;;;11.65;9.50;;;;;;;9.97;90.34;99046.13;4893233;28;20209;-89
2020/12/20 02:49:03;;;;;;;15.02;11.55;;;;;;;9.95;90.07;99053.44;4917365;29;20201;-89
2020/12/20 02:55:01;;;;;;;39.15;24.38;;;;;;;9.84;90.58;99045.19;5713621;23;20240;-89
2020/12/20 02:57:58;;;;;;;;;;;;;;;;;;;;;
2020/12/20 03:00:51;;;;;;;27.00;18.02;;;;;;;9.77;91.00;99037.63;4891106;28;20247;-89
2020/12/20 03:03:19;;;;;;;26.83;18.10;;;;;;;10.04;89.62;99042.13;4891608;29;20222;-89
2020/12/20 03:05:48;;;;;;;31.90;20.60;;;;;;;9.93;88.95;99038.38;4925118;28;20174;-88
2020/12/20 03:08:15;;;;;;;19.52;12.25;;;;;;;9.87;89.72;99039.63;5145021;23;20377;-89
2020/12/20 03:10:43;;;;;;;15.45;11.02;;;;;;;9.78;90.10;99037.50;4931090;29;20208;-90
2020/12/20 03:13:12;;;;;;;14.07;9.50;;;;;;;9.74;90.50;99051.25;4932984;28;20721;-90
2020/12/20 03:16:03;;;;;;;11.02;8.25;;;;;;;9.67;90.77;99044.53;4900579;29;20225;-90
2020/12/20 03:18:35;;;;;;;11.02;7.45;;;;;;;9.66;91.13;99041.00;4919361;28;22564;-89
2020/12/20 03:21:03;;;;;;;9.57;7.15;;;;;;;9.64;91.70;99045.59;4902476;29;20228;-90
2020/12/20 03:26:40;;;;;;;11.38;7.15;;;;;;;9.66;91.76;99041.00;4921178;29;20948;-90
2020/12/20 03:29:39;;;;;;;10.45;7.70;;;;;;;9.66;92.06;99038.31;4937131;28;20228;-89
2020/12/20 03:33:21;;;;;;;8.65;6.80;;;;;;;9.68;92.55;99051.63;4911150;29;20232;-89
2020/12/20 03:36:36;;;;;;;7.88;6.18;;;;;;;9.69;92.99;99047.97;4825509;29;20435;-88
2020/12/20 03:39:49;;;;;;;9.40;7.43;;;;;;;9.72;93.28;99040.63;4875906;29;20201;-88
2020/12/20 03:42:52;;;;;;;10.48;7.60;;;;;;;9.77;93.31;99040.31;4905794;29;20194;-87
2020/12/20 03:45:40;;;;;;;8.45;7.00;;;;;;;9.76;93.02;99042.13;4884597;28;20246;-88
2020/12/20 03:48:23;;;;;;;9.82;8.50;;;;;;;9.72;92.94;99037.06;4916800;29;20196;-88
2020/12/20 03:50:49;;;;;;;9.60;7.63;;;;;;;9.80;93.38;99041.00;4901041;29;20197;-88
2020/12/20 03:53:17;;;;;;;16.60;10.65;;;;;;;9.98;92.35;99039.81;5001692;23;20243;-89
2020/12/20 03:56:13;;;;;;;19.98;12.82;;;;;;;10.22;90.83;99042.75;4846360;28;20861;-88
2020/12/20 03:59:24;;;;;;;18.25;12.30;;;;;;;10.27;89.48;99040.63;4928829;29;20231;-88
2020/12/20 04:02:07;;;;;;;11.38;9.75;;;;;;;10.17;89.35;99040.38;4960151;28;20234;-88
2020/12/20 04:04:41;;;;;;;14.57;10.20;;;;;;;10.04;90.46;99041.25;4896838;29;20520;-88
2020/12/20 04:07:22;;;;;;;19.83;14.10;;;;;;;9.90;91.45;99038.56;4931933;28;20225;-88
2020/12/20 04:09:51;;;;;;;20.88;15.82;;;;;;;9.82;91.89;99033.69;4933890;29;20734;-88
2020/12/20 04:21:19;;;;;;;11.32;9.35;;;;;;;9.66;93.55;99046.38;4953630;28;20267;-90
2020/12/20 04:24:08;;;;;;;10.77;8.85;;;;;;;9.68;93.84;99048.94;4967324;28;20231;-89
2020/12/20 04:26:57;;;;;;;;;;;;;;;;;;;;;
2020/12/20 04:30:18;;;;;;;8.70;7.85;;;;;;;9.65;93.86;99044.63;4896639;29;20300;-88
2020/12/20 04:32:48;;;;;;;11.45;8.82;;;;;;;9.66;94.04;99045.50;4939043;28;20226;-87
2020/12/20 04:39:12;;;;;;;10.55;8.70;;;;;;;9.71;93.97;99049.59;4869327;29;20270;-89
2020/12/20 04:41:39;;;;;;;14.45;9.82;;;;;;;9.95;93.44;99047.22;4943005;29;20243;-89
2020/12/20 04:44:07;;;;;;;11.10;9.10;;;;;;;10.14;91.20;99058.53;4906950;29;20225;-89
2020/12/20 04:46:38;;;;;;;12.65;9.80;;;;;;;10.02;91.52;99056.59;4950049;28;20638;-90
2020/12/20 04:49:48;;;;;;;14.30;11.60;;;;;;;9.94;92.02;99051.69;4943355;29;20223;-89
2020/12/20 04:52:30;;;;;;;14.25;12.55;;;;;;;9.92;92.64;99052.75;4955746;28;20230;-90
2020/12/20 04:55:04;;;;;;;13.35;10.60;;;;;;;9.93;92.52;99049.09;4927326;29;20219;-89
2020/12/20 04:58:09;;;;;;;13.43;10.57;;;;;;;9.83;92.39;99048.84;4956625;28;20222;-89
2020/12/20 05:00:36;;;;;;;13.10;9.02;;;;;;;9.82;92.63;99043.59;4989383;28;20216;-90
2020/12/20 05:03:36;;;;;;;11.75;9.75;;;;;;;10.15;89.77;99047.66;4947836;28;20224;-89
2020/12/20 05:06:18;;;;;;;15.13;9.40;;;;;;;10.24;89.62;99060.50;4986814;28;20226;-90
2020/12/20 05:09:08;;;;;;;12.05;10.20;;;;;;;10.14;88.71;99058.53;4901860;28;20722;-89
2020/12/20 05:11:43;;;;;;;13.90;10.38;;;;;;;10.00;90.62;99056.69;4942680;28;20223;-89
2020/12/20 05:14:31;;;;;;;10.45;9.38;;;;;;;9.94;90.50;99057.06;4969514;28;20227;-89
2020/12/20 05:17:16;;;;;;;12.98;8.85;;;;;;;10.06;90.40;99055.44;4967317;28;20229;-90
2020/12/20 05:19:54;;;;;;;11.35;9.00;;;;;;;9.90;91.07;99065.44;4956995;28;20203;-92
2020/12/20 05:22:22;;;;;;;10.40;9.30;;;;;;;9.98;90.48;99068.47;4958237;28;20781;-90
2020/12/20 05:24:56;;;;;;;10.30;9.10;;;;;;;9.92;91.68;99067.06;4941218;28;20329;-89
2020/12/20 05:27:33;;;;;;;10.13;8.68;;;;;;;9.79;92.07;99063.44;4957525;28;21977;-89
2020/12/20 05:30:15;;;;;;;10.10;9.10;;;;;;;9.82;92.62;99067.75;4973170;28;20255;-90
2020/12/20 05:33:04;;;;;;;8.75;7.90;;;;;;;9.83;92.92;99064.94;4975157;28;20233;-89
2020/12/20 05:35:34;;;;;;;10.20;8.55;;;;;;;9.83;92.88;99069.47;4970570;28;20767;-89
2020/12/20 05:38:01;;;;;;;8.57;7.60;;;;;;;9.85;92.84;99071.09;4958277;28;20806;-90
2020/12/20 05:40:31;;;;;;;10.00;7.93;;;;;;;9.85;93.04;99072.91;4953174;28;20251;-88
2020/12/20 05:43:05;;;;;;;10.70;8.30;;;;;;;9.90;93.05;99065.44;4946211;28;20234;-89
2020/12/20 05:45:37;;;;;;;9.40;8.50;;;;;;;9.91;93.45;99078.78;4967302;28;20215;-88
2020/12/20 05:48:19;;;;;;;12.38;9.20;;;;;;;9.95;93.26;99072.22;4959450;28;20196;-89
2020/12/20 05:50:59;;;;;;;12.27;10.50;;;;;;;9.90;93.48;99070.81;4973558;28;20195;-88
2020/12/20 05:53:31;;;;;;;12.38;9.88;;;;;;;9.92;93.72;99071.56;4958015;28;20235;-89
2020/12/20 05:56:00;;;;;;;11.13;9.85;;;;;;;9.93;93.64;99075.97;4964395;28;20224;-90
2020/12/20 05:58:34;;;;;;;12.07;9.48;;;;;;;9.95;93.91;99077.59;4979727;28;20271;-89
2020/12/20 06:01:02;;;;;;;13.18;9.75;;;;;;;10.02;93.92;99070.88;4948977;28;20279;-90
2020/12/20 06:03:29;;;;;;;10.70;9.23;;;;;;;9.95;93.63;99074.06;4942257;28;20214;-89
2020/12/20 06:06:00;;;;;;;12.70;10.00;;;;;;;9.93;94.07;99082.22;4959238;28;20238;-87
2020/12/20 06:08:31;;;;;;;12.13;10.10;;;;;;;9.91;94.05;99088.63;4966373;28;20474;-88
2020/12/20 06:11:02;;;;;;;12.38;9.80;;;;;;;9.91;94.05;99088.63;4954642;28;20219;-88
2020/12/20 06:14:23;;;;;;;11.70;9.25;;;;;;;9.91;94.29;99092.19;4944921;28;20250;-88
2020/12/20 06:17:21;;;;;;;10.68;9.23;;;;;;;9.99;94.08;99100.63;4937450;28;20232;-88
2020/12/20 06:20:02;;;;;;;10.95;9.73;;;;;;;9.95;94.16;99098.25;4937491;28;20266;-88
2020/12/20 06:22:53;;;;;;;11.02;9.05;;;;;;;9.89;94.51;99101.31;4940935;28;20586;-88
2020/12/20 06:25:29;;;;;;;11.98;10.20;;;;;;;9.93;94.86;99094.75;4942852;28;20231;-88
2020/12/20 06:28:04;;;;;;;11.65;10.38;;;;;;;9.92;94.94;99095.72;4945821;28;20615;-88
2020/12/20 06:30:31;;;;;;;11.52;10.32;;;;;;;9.94;95.04;99097.38;4968932;28;20215;-89
2020/12/20 06:33:04;;;;;;;10.65;9.55;;;;;;;9.97;95.23;99093.63;4962394;28;20227;-88
2020/12/20 06:35:35;;;;;;;13.73;10.30;;;;;;;10.01;95.25;99098.69;4959556;28;20235;-88
2020/12/20 06:38:04;;;;;;;11.25;10.05;;;;;;;10.01;95.23;99097.81;4948887;28;20231;-88
2020/12/20 06:40:30;;;;;;;11.93;8.75;;;;;;;10.00;95.13;99101.47;4964887;28;20227;-88
2020/12/20 06:43:02;;;;;;;11.05;9.85;;;;;;;10.01;95.29;99103.19;4964796;28;20230;-89
2020/12/20 06:45:40;;;;;;;10.65;9.55;;;;;;;10.02;94.94;99096.88;4964972;28;20231;-90
2020/12/20 06:48:15;;;;;;;12.30;10.15;;;;;;;9.91;94.97;99104.75;4969023;28;20293;-89
2020/12/20 06:50:46;;;;;;;14.30;10.95;;;;;;;9.83;94.73;99104.38;4954488;28;20192;-89
2020/12/20 06:53:40;;;;;;;12.80;10.75;;;;;;;9.81;95.11;99104.47;4977948;28;20234;-89
2020/12/20 06:56:23;;;;;;;12.30;9.95;;;;;;;9.76;95.17;99100.34;4936905;28;20231;-89
2020/12/20 06:58:52;;;;;;;10.73;9.63;;;;;;;9.77;95.33;99102.94;4947586;28;20278;-89
2020/12/20 07:01:41;;;;;;;11.48;10.25;;;;;;;9.76;95.47;99111.09;4933343;28;20234;-90
2020/12/20 07:04:34;;;;;;;18.17;10.13;;;;;;;9.77;95.76;99108.28;4934993;28;20263;-89
2020/12/20 07:07:12;;;;;;;11.75;10.07;;;;;;;9.79;95.80;99108.22;4959970;28;20216;-91
2020/12/20 07:09:40;;;;;;;12.10;10.10;;;;;;;9.82;95.81;99116.94;4973826;28;20223;-91
2020/12/20 07:12:31;;;;;;;15.32;12.00;;;;;;;9.82;95.63;99116.09;4984304;28;20214;-90
2020/12/20 07:15:00;;;;;;;14.82;11.45;;;;;;;9.85;95.80;99122.13;4963306;28;20290;-91
2020/12/20 07:17:44;;;;;;;14.20;11.13;;;;;;;9.86;95.74;99122.97;4958966;28;20279;-89
2020/12/20 07:20:33;;;;;;;11.95;10.75;;;;;;;9.86;95.60;99122.97;4994880;23;20223;-91
2020/12/20 07:22:59;;;;;;;15.75;11.25;;;;;;;9.85;95.79;99119.44;5135615;23;20241;-91
2020/12/20 07:25:28;;;;;;;12.90;11.50;;;;;;;9.83;95.76;99124.03;4961424;28;20294;-91
2020/12/20 07:28:01;;;;;;;14.40;12.05;;;;;;;9.83;95.76;99117.81;4967400;28;20210;-90
2020/12/20 07:30:36;;;;;;;17.02;11.93;;;;;;;9.81;95.66;99119.72;5092731;23;20291;-90
2020/12/20 07:33:03;;;;;;;14.93;12.25;;;;;;;9.80;95.65;99115.31;4963112;28;20221;-90
2020/12/20 07:35:43;;;;;;;14.32;11.55;;;;;;;9.81;96.04;99125.06;4916270;28;20248;-90
2020/12/20 07:38:17;;;;;;;15.60;11.95;;;;;;;9.85;96.11;99119.44;4986319;23;20265;-90
2020/12/20 07:40:43;;;;;;;13.80;12.30;;;;;;;9.85;96.10;99123.94;4988544;28;20219;-88
2020/12/20 07:43:12;;;;;;;17.40;13.73;;;;;;;9.80;95.92;99124.22;4975403;28;20223;-88
2020/12/20 07:45:58;;;;;;;17.10;13.82;;;;;;;9.83;96.24;99121.34;4970966;28;20251;-90
2020/12/20 07:48:41;;;;;;;19.23;14.98;;;;;;;9.81;95.85;99123.28;4949830;28;20241;-91
2020/12/20 07:51:24;;;;;;;17.90;15.40;;;;;;;9.87;95.83;99127.38;4986381;28;20206;-90
2020/12/20 07:54:06;;;;;;;17.13;14.00;;;;;;;9.85;95.71;99126.63;4994857;28;20225;-89
2020/12/20 07:56:47;;;;;;;16.02;13.93;;;;;;;9.82;95.87;99127.69;4942167;28;20215;-90
2020/12/20 07:59:16;;;;;;;18.20;14.48;;;;;;;10.02;95.17;99134.50;4981177;28;20226;-89
2020/12/20 08:01:47;;;;;;;18.38;14.43;;;;;;;9.97;95.25;99142.81;4949870;28;20222;-90
2020/12/20 08:04:19;;;;;;;16.92;12.98;;;;;;;9.98;95.31;99138.31;4983612;28;20246;-90
2020/12/20 08:06:51;;;;;;;19.52;15.80;;;;;;;10.13;94.90;99137.38;4979652;28;20222;-90
2020/12/20 08:09:27;;;;;;;17.70;15.68;;;;;;;10.08;94.46;99144.88;4968421;28;20194;-90
2020/12/20 08:12:02;;;;;;;17.48;13.73;;;;;;;10.05;94.53;99148.63;4958468;28;20214;-89
2020/12/20 08:14:43;;;;;;;22.70;15.00;;;;;;;10.12;94.53;99147.28;4948220;28;20229;-89
2020/12/20 08:17:21;;;;;;;19.27;16.38;;;;;;;10.15;94.98;99146.22;5037296;23;20302;-88
2020/12/20 08:19:48;;;;;;;19.83;16.92;;;;;;;10.29;94.62;99144.34;4993635;28;20233;-90
2020/12/20 08:22:17;;;;;;;22.08;18.25;;;;;;;10.55;91.68;99145.38;4991658;28;20227;-89
2020/12/20 08:38:54;;;;;;;;;;;;;;;;;;;;;
2020/12/20 08:42:50;;;;;;;;;;;;;;;;;;;;;
2020/12/20 08:53:56;;;;;;;25.85;21.42;;;;;;;10.63;92.08;99159.16;4707126;30;20581;-88
2020/12/20 08:56:22;;;;;;;25.13;20.52;;;;;;;10.70;92.10;99171.25;4737643;29;20240;-88
2020/12/20 08:58:50;;;;;;;24.00;18.13;;;;;;;10.74;92.10;99170.94;4733882;29;20238;-87
2020/12/20 09:01:19;;;;;;;29.15;24.30;;;;;;;10.80;92.04;99175.91;4845021;29;20234;-89
2020/12/20 09:03:48;;;;;;;25.95;21.10;;;;;;;10.90;91.65;99178.88;4873082;29;20233;-89
2020/12/20 09:06:14;;;;;;;34.17;24.90;;;;;;;11.03;90.98;99179.78;4864480;29;20330;-86
2020/12/20 09:08:40;;;;;;;39.95;28.30;;;;;;;11.01;90.60;99182.59;4867446;29;20231;-85
2020/12/20 09:11:22;;;;;;;34.15;25.23;;;;;;;11.01;90.48;99189.78;4892635;29;20652;-88
2020/12/20 09:13:48;;;;;;;23.02;19.30;;;;;;;11.01;90.41;99193.34;4913635;28;20319;-89
2020/12/20 09:16:16;;;;;;;23.67;19.23;;;;;;;11.15;89.49;99201.38;4907516;29;20227;-87
2020/12/20 09:18:42;;;;;;;18.35;13.70;;;;;;;11.23;89.08;99200.88;4917641;28;20231;-87
2020/12/20 09:21:09;;;;;;;13.40;12.00;;;;;;;11.41;86.70;99202.28;4958523;28;20208;-87
2020/12/20 09:23:35;;;;;;;14.38;12.07;;;;;;;11.40;86.68;99211.34;4971695;28;20250;-86
2020/12/20 09:26:04;;;;;;;16.13;13.70;;;;;;;11.29;87.31;99204.00;4976356;28;20230;-85
2020/12/20 09:28:33;;;;;;;12.90;9.57;;;;;;;11.31;85.96;99209.28;4967741;28;20234;-85
2020/12/20 09:31:01;;;;;;;11.35;9.18;;;;;;;11.41;86.13;99202.28;4988300;28;20626;-83
2020/12/20 09:33:37;;;;;;;12.50;9.45;;;;;;;11.50;86.19;99212.47;4970608;28;20219;-85
2020/12/20 09:36:04;;;;;;;10.38;9.20;;;;;;;11.55;86.05;99200.41;5005331;28;20262;-82
2020/12/20 09:38:41;;;;;;;12.57;9.10;;;;;;;11.56;86.06;99196.72;5003449;28;20224;-84
2020/12/20 09:41:11;;;;;;;10.20;8.93;;;;;;;11.59;85.93;99203.78;4995796;28;20574;-83
2020/12/20 09:43:40;;;;;;;10.80;7.88;;;;;;;11.97;82.81;99207.38;4984294;28;20241;-82
2020/12/20 09:46:07;;;;;;;10.80;8.75;;;;;;;12.00;82.71;99212.56;4993467;28;20295;-80
2020/12/20 09:48:33;;;;;;;13.13;7.90;;;;;;;11.82;83.86;99213.84;4981153;28;20231;-81
2020/12/20 09:51:00;;;;;;;8.60;7.60;;;;;;;11.93;82.32;99205.84;4964541;28;20208;-81
2020/12/20 09:53:28;;;;;;;8.77;7.80;;;;;;;11.99;82.08;99197.34;4982766;28;20239;-82
2020/12/20 09:55:54;;;;;;;8.65;7.75;;;;;;;12.13;81.40;99210.72;5001705;28;20290;-83
2020/12/20 09:58:21;;;;;;;10.68;8.80;;;;;;;11.88;82.72;99208.88;5004595;28;20333;-82
2020/12/20 10:00:47;;;;;;;10.18;9.18;;;;;;;11.90;83.89;99212.34;4986490;28;20739;-82
2020/12/20 10:03:13;;;;;;;11.45;10.10;;;;;;;12.26;81.84;99212.44;4993865;28;20314;-84
2020/12/20 10:05:42;;;;;;;14.93;11.25;;;;;;;12.19;81.64;99213.84;4967424;28;20199;-88
2020/12/20 10:08:10;;;;;;;10.18;9.10;;;;;;;12.33;80.77;99216.41;4981492;28;20227;-87
2020/12/20 10:10:37;;;;;;;11.77;10.55;;;;;;;12.29;81.25;99211.34;4991189;28;20243;-89
2020/12/20 10:13:08;;;;;;;9.60;8.50;;;;;;;12.33;80.86;99210.19;4979847;28;20227;-89
2020/12/20 10:15:35;;;;;;;11.23;8.73;;;;;;;12.46;80.22;99206.47;4982787;28;20233;-88
2020/12/20 10:18:02;;;;;;;11.10;9.13;;;;;;;12.29;80.54;99214.06;4974185;28;20198;-87
2020/12/20 10:20:38;;;;;;;11.73;10.27;;;;;;;12.21;80.98;99219.13;4976286;28;20227;-88
2020/12/20 10:23:05;;;;;;;11.63;9.45;;;;;;;12.20;81.01;99212.88;4959524;28;20313;-89
2020/12/20 10:25:35;;;;;;;13.48;10.45;;;;;;;12.23;81.23;99217.19;4960557;28;20237;-87
2020/12/20 10:28:10;;;;;;;13.98;9.93;;;;;;;12.13;81.12;99214.28;4963359;28;20226;-88
2020/12/20 10:30:37;;;;;;;9.93;8.73;;;;;;;12.06;81.21;99214.84;4974353;28;20222;-90
2020/12/20 10:33:04;;;;;;;11.27;9.52;;;;;;;12.15;81.55;99211.47;4970632;28;20215;-91
2020/12/20 10:35:32;;;;;;;9.52;7.75;;;;;;;12.42;81.32;99201.41;4960300;28;20223;-89
2020/12/20 10:37:58;;;;;;;9.98;8.77;;;;;;;12.53;79.85;99210.44;4982912;28;20302;-88
2020/12/20 10:40:26;;;;;;;13.90;10.27;;;;;;;12.56;79.71;99210.25;4971716;28;20234;-87
2020/12/20 10:42:53;;;;;;;9.77;8.40;;;;;;;12.52;79.92;99210.59;4980465;28;20228;-87
2020/12/20 10:45:20;;;;;;;8.95;8.05;;;;;;;12.42;79.82;99205.00;4971988;28;20662;-91
2020/12/20 10:48:11;;;;;;;10.25;8.48;;;;;;;12.37;79.74;99201.75;4981594;28;20203;-88
2020/12/20 10:50:38;;;;;;;10.48;7.60;;;;;;;12.41;80.12;99202.41;4996137;28;20223;-83
2020/12/20 10:53:04;;;;;;;9.57;8.00;;;;;;;12.48;79.91;99202.69;4957658;28;20224;-85
2020/12/20 10:55:36;;;;;;;9.10;8.18;;;;;;;12.52;79.53;99205.19;4979241;28;20789;-82
2020/12/20 10:58:02;;;;;;;12.45;6.90;;;;;;;12.50;79.15;99197.19;4977838;28;20226;-83
2020/12/20 11:00:29;;;;;;;10.55;7.45;;;;;;;12.37;79.26;99196.34;4955549;28;20196;-81
2020/12/20 11:02:55;;;;;;;12.20;7.57;;;;;;;12.22;80.33;99199.28;4970008;28;20209;-80
2020/12/20 11:05:28;;;;;;;13.00;10.35;;;;;;;12.22;80.55;99202.84;4998071;28;20247;-83
2020/12/20 11:07:54;;;;;;;14.50;8.05;;;;;;;12.16;81.24;99203.28;4983202;28;20239;-84
2020/12/20 11:10:21;;;;;;;11.23;7.97;;;;;;;12.24;81.08;99200.03;4993706;28;20223;-82
2020/12/20 11:12:47;;;;;;;10.60;9.50;;;;;;;12.07;81.37;99197.69;4975874;28;20231;-83
2020/12/20 11:15:13;;;;;;;16.35;13.88;;;;;;;12.13;81.61;99195.41;4981704;28;20215;-81
2020/12/20 11:17:40;;;;;;;10.68;8.48;;;;;;;12.11;81.83;99196.47;4952824;28;20262;-81
2020/12/20 11:20:06;;;;;;;10.43;9.23;;;;;;;11.92;81.58;99199.63;4995003;28;20702;-83
2020/12/20 11:22:38;;;;;;;9.25;8.32;;;;;;;11.97;81.88;99201.97;4997847;28;20721;-83
2020/12/20 11:25:04;;;;;;;9.35;7.55;;;;;;;12.06;81.45;99188.72;4979951;28;20313;-81
2020/12/20 11:27:30;;;;;;;19.17;14.95;;;;;;;11.96;80.50;99189.50;5002325;28;20176;-83
2020/12/20 11:29:56;;;;;;;12.45;9.05;;;;;;;12.07;80.56;99184.22;4992661;28;20199;-80
2020/12/20 11:32:22;;;;;;;12.90;9.27;;;;;;;12.21;80.20;99189.47;4990261;28;20274;-82
2020/12/20 11:39:22;;;;;;;7.70;6.90;;;;;;;12.29;78.18;99184.41;5063474;23;20326;-84
2020/12/20 11:41:54;;;;;;;8.07;6.88;;;;;;;12.28;77.64;99188.06;4930983;29;20220;-87
2020/12/20 11:44:24;;;;;;;7.57;6.30;;;;;;;12.18;77.42;99184.28;4947868;29;20250;-82
2020/12/20 11:46:51;;;;;;;8.52;6.30;;;;;;;12.13;78.09;99184.63;4959772;28;20928;-85
2020/12/20 11:49:17;;;;;;;10.13;7.32;;;;;;;12.18;78.45;99185.16;4964662;28;20204;-81
2020/12/20 11:51:46;;;;;;;7.78;6.97;;;;;;;12.37;78.01;99180.19;4999561;23;20219;-79
2020/12/20 11:54:16;;;;;;;10.13;6.28;;;;;;;12.30;77.25;99175.31;4947901;28;20846;-84
2020/12/20 11:56:43;;;;;;;8.65;7.47;;;;;;;12.33;78.10;99173.28;4953645;28;20280;-81
2020/12/20 11:59:15;;;;;;;6.88;6.18;;;;;;;12.36;76.73;99175.75;5003628;28;20231;-81
2020/12/20 12:02:07;;;;;;;8.63;6.20;;;;;;;12.31;77.04;99166.25;4998738;28;20281;-83
2020/12/20 12:04:33;;;;;;;8.93;5.82;;;;;;;12.29;77.24;99173.59;4975475;28;20231;-86
2020/12/20 12:07:00;;;;;;;10.48;6.70;;;;;;;12.29;77.41;99185.28;4967221;28;20230;-84
2020/12/20 12:09:27;;;;;;;10.70;6.88;;;;;;;12.20;77.95;99182.38;4981905;28;20187;-85
2020/12/20 12:11:53;;;;;;;8.15;7.25;;;;;;;12.13;77.37;99184.63;4983123;28;20171;-84
2020/12/20 12:14:20;;;;;;;7.60;6.80;;;;;;;12.13;77.13;99181.94;4990994;28;20215;-83
2020/12/20 12:16:48;;;;;;;7.15;6.40;;;;;;;12.22;77.09;99186.69;4991670;23;20244;-83
2020/12/20 12:19:25;;;;;;;;;;;;;;;;;;;;;
2020/12/20 12:21:56;;;;;;;7.10;5.70;;;;;;;12.25;76.82;99190.97;4980461;28;20231;-88
2020/12/20 12:24:24;;;;;;;9.07;6.78;;;;;;;12.24;77.04;99194.63;4972026;28;20199;-88
2020/12/20 12:26:51;;;;;;;9.20;6.40;;;;;;;12.07;77.23;99186.91;4962822;28;20200;-86
2020/12/20 12:29:21;;;;;;;6.55;5.95;;;;;;;12.12;76.92;99184.72;4980784;28;20238;-86
2020/12/20 12:34:43;;;;;;;6.28;5.65;;;;;;;12.14;76.91;99182.81;5017838;23;20264;-85
2020/12/20 12:37:10;;;;;;;10.30;6.20;;;;;;;12.04;76.68;99182.59;4951243;28;20224;-88
2020/12/20 12:39:37;;;;;;;6.25;5.32;;;;;;;12.08;75.89;99178.69;4962313;28;20231;-84
2020/12/20 12:42:05;;;;;;;6.85;6.05;;;;;;;12.09;75.93;99177.75;4947342;29;20195;-84
2020/12/20 12:44:32;;;;;;;6.25;5.63;;;;;;;12.14;76.41;99182.81;5085326;23;20235;-82
2020/12/20 12:46:58;;;;;;;7.47;5.88;;;;;;;12.22;76.04;99186.69;4913516;28;20221;-86
2020/12/20 12:49:25;;;;;;;9.73;6.03;;;;;;;12.22;75.67;99183.09;4953023;28;20231;-85
2020/12/20 12:51:52;;;;;;;6.05;5.15;;;;;;;12.15;75.71;99181.81;4927572;28;20228;-85
2020/12/20 12:54:19;;;;;;;11.20;5.18;;;;;;;12.10;75.69;99181.28;4970330;28;20224;-84
2020/12/20 12:56:57;;;;;;;6.25;5.63;;;;;;;12.04;75.86;99179.91;4929215;29;20192;-84
2020/12/20 12:59:24;;;;;;;8.63;7.03;;;;;;;12.08;76.54;99178.69;4915149;29;20239;-85
2020/12/20 13:01:51;;;;;;;7.50;6.05;;;;;;;12.16;76.04;99180.84;4968399;28;20247;-83
2020/12/20 13:04:19;;;;;;;8.07;6.30;;;;;;;12.22;75.86;99191.19;4925480;29;20237;-84
2020/12/20 13:06:46;;;;;;;8.57;6.80;;;;;;;12.19;75.78;99189.56;4925924;28;20239;-84